sensor_id;sensor_type;location;lat;lon;timestamp;P1;durP1;ratioP1;P2;durP2;ratioP2
5428;SDS011;2737;52.386;9.980;2023-12-20T00:01:16;21.60;;;10.67;;
5428;SDS011;2737;52.386;9.980;2023-12-20T00:03:43;20.70;;;10.07;;
5428;SDS011;2737;52.386;9.980;2023-12-20T00:06:10;21.33;;;10.20;;
5428;SDS011;2737;52.386;9.980;2023-12-20T00:08:37;22.73;;;10.70;;
5428;SDS011;2737;52.386;9.980;2023-12-20T00:11:05;22.43;;;11.03;;
5428;SDS011;2737;52.386;9.980;2023-12-20T00:13:32;25.67;;;11.00;;
5428;SDS011;2737;52.386;9.980;2023-12-20T00:16:00;21.43;;;10.67;;
5428;SDS011;2737;52.386;9.980;2023-12-20T00:18:27;20.33;;;10.67;;
5428;SDS011;2737;52.386;9.980;2023-12-20T00:20:54;26.03;;;11.60;;
5428;SDS011;2737;52.386;9.980;2023-12-20T00:23:21;30.60;;;12.43;;
5428;SDS011;2737;52.386;9.980;2023-12-20T00:25:49;26.23;;;9.23;;
5428;SDS011;2737;52.386;9.980;2023-12-20T00:28:16;26.60;;;12.47;;
5428;SDS011;2737;52.386;9.980;2023-12-20T00:30:43;22.53;;;10.80;;
5428;SDS011;2737;52.386;9.980;2023-12-20T00:33:11;22.53;;;8.83;;
5428;SDS011;2737;52.386;9.980;2023-12-20T00:35:38;23.53;;;9.07;;
5428;SDS011;2737;52.386;9.980;2023-12-20T00:38:06;15.83;;;8.50;;
5428;SDS011;2737;52.386;9.980;2023-12-20T00:40:34;23.57;;;8.30;;
5428;SDS011;2737;52.386;9.980;2023-12-20T00:43:01;19.13;;;7.87;;
5428;SDS011;2737;52.386;9.980;2023-12-20T00:45:28;19.93;;;8.20;;
5428;SDS011;2737;52.386;9.980;2023-12-20T00:47:55;26.40;;;7.40;;
5428;SDS011;2737;52.386;9.980;2023-12-20T00:50:23;15.63;;;6.47;;
5428;SDS011;2737;52.386;9.980;2023-12-20T00:52:50;20.83;;;6.73;;
5428;SDS011;2737;52.386;9.980;2023-12-20T00:55:19;22.07;;;6.50;;
5428;SDS011;2737;52.386;9.980;2023-12-20T00:57:46;18.03;;;6.53;;
5428;SDS011;2737;52.386;9.980;2023-12-20T01:00:13;12.20;;;5.00;;
5428;SDS011;2737;52.386;9.980;2023-12-20T01:02:41;24.03;;;6.53;;
5428;SDS011;2737;52.386;9.980;2023-12-20T01:05:08;13.30;;;4.90;;
5428;SDS011;2737;52.386;9.980;2023-12-20T01:07:36;10.67;;;5.13;;
5428;SDS011;2737;52.386;9.980;2023-12-20T01:10:03;14.87;;;4.53;;
5428;SDS011;2737;52.386;9.980;2023-12-20T01:12:31;15.70;;;4.80;;
5428;SDS011;2737;52.386;9.980;2023-12-20T01:14:58;11.10;;;4.40;;
5428;SDS011;2737;52.386;9.980;2023-12-20T01:17:25;9.47;;;4.43;;
5428;SDS011;2737;52.386;9.980;2023-12-20T01:19:52;13.13;;;4.60;;
5428;SDS011;2737;52.386;9.980;2023-12-20T01:22:19;20.53;;;3.80;;
5428;SDS011;2737;52.386;9.980;2023-12-20T01:24:47;10.77;;;4.17;;
5428;SDS011;2737;52.386;9.980;2023-12-20T01:27:14;14.17;;;3.90;;
5428;SDS011;2737;52.386;9.980;2023-12-20T01:29:41;13.57;;;3.63;;
5428;SDS011;2737;52.386;9.980;2023-12-20T01:32:08;20.17;;;3.60;;
5428;SDS011;2737;52.386;9.980;2023-12-20T01:34:35;10.67;;;3.10;;
5428;SDS011;2737;52.386;9.980;2023-12-20T01:37:02;9.63;;;2.87;;
5428;SDS011;2737;52.386;9.980;2023-12-20T01:39:29;20.73;;;4.57;;
5428;SDS011;2737;52.386;9.980;2023-12-20T01:41:58;19.53;;;3.20;;
5428;SDS011;2737;52.386;9.980;2023-12-20T01:44:24;14.60;;;3.03;;
5428;SDS011;2737;52.386;9.980;2023-12-20T01:46:52;18.97;;;2.90;;
5428;SDS011;2737;52.386;9.980;2023-12-20T01:49:19;14.63;;;3.20;;
5428;SDS011;2737;52.386;9.980;2023-12-20T01:51:46;17.03;;;3.30;;
5428;SDS011;2737;52.386;9.980;2023-12-20T01:54:14;10.63;;;2.83;;
5428;SDS011;2737;52.386;9.980;2023-12-20T01:56:42;12.23;;;2.73;;
5428;SDS011;2737;52.386;9.980;2023-12-20T01:59:10;15.57;;;2.93;;
5428;SDS011;2737;52.386;9.980;2023-12-20T02:01:38;10.50;;;2.80;;
5428;SDS011;2737;52.386;9.980;2023-12-20T02:04:05;9.73;;;3.07;;
5428;SDS011;2737;52.386;9.980;2023-12-20T02:06:33;9.43;;;2.27;;
5428;SDS011;2737;52.386;9.980;2023-12-20T02:09:00;16.07;;;3.20;;
5428;SDS011;2737;52.386;9.980;2023-12-20T02:11:27;10.87;;;3.70;;
5428;SDS011;2737;52.386;9.980;2023-12-20T02:13:55;10.17;;;2.40;;
5428;SDS011;2737;52.386;9.980;2023-12-20T02:16:23;13.10;;;3.37;;
5428;SDS011;2737;52.386;9.980;2023-12-20T02:18:50;15.70;;;3.20;;
5428;SDS011;2737;52.386;9.980;2023-12-20T02:21:17;11.00;;;2.90;;
5428;SDS011;2737;52.386;9.980;2023-12-20T02:23:47;10.30;;;2.87;;
5428;SDS011;2737;52.386;9.980;2023-12-20T02:26:14;10.63;;;2.33;;
5428;SDS011;2737;52.386;9.980;2023-12-20T02:28:40;12.30;;;2.60;;
5428;SDS011;2737;52.386;9.980;2023-12-20T02:31:07;9.67;;;2.77;;
5428;SDS011;2737;52.386;9.980;2023-12-20T02:33:34;10.87;;;2.07;;
5428;SDS011;2737;52.386;9.980;2023-12-20T02:36:01;14.50;;;2.90;;
5428;SDS011;2737;52.386;9.980;2023-12-20T02:38:28;21.60;;;2.57;;
5428;SDS011;2737;52.386;9.980;2023-12-20T02:40:58;11.67;;;2.13;;
5428;SDS011;2737;52.386;9.980;2023-12-20T02:43:25;16.10;;;2.50;;
5428;SDS011;2737;52.386;9.980;2023-12-20T02:45:52;13.43;;;2.87;;
5428;SDS011;2737;52.386;9.980;2023-12-20T02:48:19;12.87;;;2.67;;
5428;SDS011;2737;52.386;9.980;2023-12-20T02:50:46;16.73;;;2.40;;
5428;SDS011;2737;52.386;9.980;2023-12-20T02:53:14;13.00;;;2.53;;
5428;SDS011;2737;52.386;9.980;2023-12-20T02:55:41;24.10;;;3.37;;
5428;SDS011;2737;52.386;9.980;2023-12-20T02:58:10;9.33;;;2.63;;
5428;SDS011;2737;52.386;9.980;2023-12-20T03:00:36;18.13;;;3.27;;
5428;SDS011;2737;52.386;9.980;2023-12-20T03:03:04;11.10;;;2.50;;
5428;SDS011;2737;52.386;9.980;2023-12-20T03:05:31;15.33;;;2.20;;
5428;SDS011;2737;52.386;9.980;2023-12-20T03:07:59;23.93;;;2.97;;
5428;SDS011;2737;52.386;9.980;2023-12-20T03:10:26;15.57;;;2.97;;
5428;SDS011;2737;52.386;9.980;2023-12-20T03:12:53;15.23;;;2.90;;
5428;SDS011;2737;52.386;9.980;2023-12-20T03:15:21;10.93;;;4.00;;
5428;SDS011;2737;52.386;9.980;2023-12-20T03:17:48;14.80;;;3.50;;
5428;SDS011;2737;52.386;9.980;2023-12-20T03:20:15;20.57;;;3.20;;
5428;SDS011;2737;52.386;9.980;2023-12-20T03:22:42;13.83;;;3.60;;
5428;SDS011;2737;52.386;9.980;2023-12-20T03:25:09;11.33;;;2.73;;
5428;SDS011;2737;52.386;9.980;2023-12-20T03:27:36;15.00;;;2.97;;
5428;SDS011;2737;52.386;9.980;2023-12-20T03:30:05;10.53;;;2.63;;
5428;SDS011;2737;52.386;9.980;2023-12-20T03:32:34;12.87;;;2.33;;
5428;SDS011;2737;52.386;9.980;2023-12-20T03:35:01;10.77;;;2.50;;
5428;SDS011;2737;52.386;9.980;2023-12-20T03:37:28;7.23;;;2.17;;
5428;SDS011;2737;52.386;9.980;2023-12-20T03:39:55;10.23;;;2.60;;
5428;SDS011;2737;52.386;9.980;2023-12-20T03:42:22;9.03;;;1.77;;
5428;SDS011;2737;52.386;9.980;2023-12-20T03:44:49;11.83;;;1.40;;
5428;SDS011;2737;52.386;9.980;2023-12-20T03:47:16;18.47;;;2.47;;
5428;SDS011;2737;52.386;9.980;2023-12-20T03:49:44;6.53;;;1.63;;
5428;SDS011;2737;52.386;9.980;2023-12-20T03:52:11;5.40;;;1.20;;
5428;SDS011;2737;52.386;9.980;2023-12-20T03:54:38;8.80;;;1.80;;
5428;SDS011;2737;52.386;9.980;2023-12-20T03:57:07;7.13;;;1.57;;
5428;SDS011;2737;52.386;9.980;2023-12-20T03:59:34;9.57;;;1.57;;
5428;SDS011;2737;52.386;9.980;2023-12-20T04:02:03;7.33;;;1.67;;
5428;SDS011;2737;52.386;9.980;2023-12-20T04:04:30;7.00;;;1.70;;
5428;SDS011;2737;52.386;9.980;2023-12-20T04:06:59;5.60;;;2.30;;
5428;SDS011;2737;52.386;9.980;2023-12-20T04:09:26;9.40;;;1.70;;
5428;SDS011;2737;52.386;9.980;2023-12-20T04:11:53;9.43;;;2.13;;
5428;SDS011;2737;52.386;9.980;2023-12-20T04:14:20;8.67;;;1.30;;
5428;SDS011;2737;52.386;9.980;2023-12-20T04:16:47;13.50;;;1.47;;
5428;SDS011;2737;52.386;9.980;2023-12-20T04:19:14;6.43;;;1.53;;
5428;SDS011;2737;52.386;9.980;2023-12-20T04:21:41;11.33;;;1.27;;
5428;SDS011;2737;52.386;9.980;2023-12-20T04:24:09;7.80;;;1.33;;
5428;SDS011;2737;52.386;9.980;2023-12-20T04:26:36;13.87;;;1.63;;
5428;SDS011;2737;52.386;9.980;2023-12-20T04:29:03;5.10;;;1.07;;
5428;SDS011;2737;52.386;9.980;2023-12-20T04:31:30;15.90;;;2.40;;
5428;SDS011;2737;52.386;9.980;2023-12-20T04:33:57;17.93;;;1.87;;
5428;SDS011;2737;52.386;9.980;2023-12-20T04:36:24;7.83;;;1.77;;
5428;SDS011;2737;52.386;9.980;2023-12-20T04:38:52;17.47;;;1.70;;
5428;SDS011;2737;52.386;9.980;2023-12-20T04:41:20;11.03;;;1.50;;
5428;SDS011;2737;52.386;9.980;2023-12-20T04:43:47;5.97;;;1.57;;
5428;SDS011;2737;52.386;9.980;2023-12-20T04:46:14;11.43;;;2.10;;
5428;SDS011;2737;52.386;9.980;2023-12-20T04:48:41;7.60;;;1.60;;
5428;SDS011;2737;52.386;9.980;2023-12-20T04:51:08;4.60;;;1.40;;
5428;SDS011;2737;52.386;9.980;2023-12-20T04:53:35;8.40;;;1.80;;
5428;SDS011;2737;52.386;9.980;2023-12-20T04:56:02;8.63;;;1.80;;
5428;SDS011;2737;52.386;9.980;2023-12-20T04:58:31;14.87;;;2.13;;
5428;SDS011;2737;52.386;9.980;2023-12-20T05:00:58;13.80;;;2.50;;
5428;SDS011;2737;52.386;9.980;2023-12-20T05:03:25;19.20;;;2.30;;
5428;SDS011;2737;52.386;9.980;2023-12-20T05:05:52;12.60;;;2.10;;
5428;SDS011;2737;52.386;9.980;2023-12-20T05:08:19;9.30;;;1.60;;
5428;SDS011;2737;52.386;9.980;2023-12-20T05:10:46;5.50;;;2.20;;
5428;SDS011;2737;52.386;9.980;2023-12-20T05:13:14;7.07;;;1.83;;
5428;SDS011;2737;52.386;9.980;2023-12-20T05:15:42;4.80;;;1.60;;
5428;SDS011;2737;52.386;9.980;2023-12-20T05:18:09;16.83;;;2.27;;
5428;SDS011;2737;52.386;9.980;2023-12-20T05:20:36;14.27;;;2.10;;
5428;SDS011;2737;52.386;9.980;2023-12-20T05:23:03;9.20;;;1.80;;
5428;SDS011;2737;52.386;9.980;2023-12-20T05:25:30;13.37;;;2.23;;
5428;SDS011;2737;52.386;9.980;2023-12-20T05:27:58;10.60;;;2.00;;
5428;SDS011;2737;52.386;9.980;2023-12-20T05:30:24;8.23;;;2.30;;
5428;SDS011;2737;52.386;9.980;2023-12-20T05:32:53;18.60;;;2.50;;
5428;SDS011;2737;52.386;9.980;2023-12-20T05:35:20;15.90;;;2.67;;
5428;SDS011;2737;52.386;9.980;2023-12-20T05:37:48;14.20;;;2.50;;
5428;SDS011;2737;52.386;9.980;2023-12-20T05:40:15;16.63;;;4.77;;
5428;SDS011;2737;52.386;9.980;2023-12-20T05:42:42;22.17;;;3.53;;
5428;SDS011;2737;52.386;9.980;2023-12-20T05:45:09;7.40;;;2.53;;
5428;SDS011;2737;52.386;9.980;2023-12-20T05:47:37;15.67;;;2.73;;
5428;SDS011;2737;52.386;9.980;2023-12-20T05:50:05;11.50;;;2.53;;
5428;SDS011;2737;52.386;9.980;2023-12-20T05:52:34;11.67;;;2.63;;
5428;SDS011;2737;52.386;9.980;2023-12-20T05:55:01;16.83;;;2.40;;
5428;SDS011;2737;52.386;9.980;2023-12-20T05:57:28;7.50;;;2.20;;
5428;SDS011;2737;52.386;9.980;2023-12-20T05:59:55;16.00;;;3.70;;
5428;SDS011;2737;52.386;9.980;2023-12-20T06:02:22;8.33;;;2.47;;
5428;SDS011;2737;52.386;9.980;2023-12-20T06:04:49;12.67;;;2.50;;
5428;SDS011;2737;52.386;9.980;2023-12-20T06:07:17;12.57;;;2.30;;
5428;SDS011;2737;52.386;9.980;2023-12-20T06:09:44;11.23;;;2.60;;
5428;SDS011;2737;52.386;9.980;2023-12-20T06:12:11;8.30;;;2.13;;
5428;SDS011;2737;52.386;9.980;2023-12-20T06:14:38;13.90;;;2.47;;
5428;SDS011;2737;52.386;9.980;2023-12-20T06:17:05;13.37;;;2.87;;
5428;SDS011;2737;52.386;9.980;2023-12-20T06:19:32;21.83;;;3.40;;
5428;SDS011;2737;52.386;9.980;2023-12-20T06:21:59;11.43;;;2.80;;
5428;SDS011;2737;52.386;9.980;2023-12-20T06:24:27;9.33;;;2.90;;
5428;SDS011;2737;52.386;9.980;2023-12-20T06:26:55;12.80;;;3.13;;
5428;SDS011;2737;52.386;9.980;2023-12-20T06:29:22;22.40;;;2.97;;
5428;SDS011;2737;52.386;9.980;2023-12-20T06:31:49;17.53;;;3.20;;
5428;SDS011;2737;52.386;9.980;2023-12-20T06:34:16;13.73;;;2.73;;
5428;SDS011;2737;52.386;9.980;2023-12-20T06:36:43;19.30;;;3.13;;
5428;SDS011;2737;52.386;9.980;2023-12-20T06:39:10;11.60;;;3.17;;
5428;SDS011;2737;52.386;9.980;2023-12-20T06:41:40;13.23;;;3.53;;
5428;SDS011;2737;52.386;9.980;2023-12-20T06:44:08;7.90;;;2.87;;
5428;SDS011;2737;52.386;9.980;2023-12-20T06:46:35;16.00;;;3.47;;
5428;SDS011;2737;52.386;9.980;2023-12-20T06:49:02;29.70;;;4.13;;
5428;SDS011;2737;52.386;9.980;2023-12-20T06:51:29;23.77;;;4.83;;
5428;SDS011;2737;52.386;9.980;2023-12-20T06:53:56;28.17;;;6.97;;
5428;SDS011;2737;52.386;9.980;2023-12-20T06:56:23;15.20;;;3.70;;
5428;SDS011;2737;52.386;9.980;2023-12-20T06:58:51;13.23;;;4.30;;
5428;SDS011;2737;52.386;9.980;2023-12-20T07:01:18;16.30;;;4.57;;
5428;SDS011;2737;52.386;9.980;2023-12-20T07:03:45;13.03;;;3.37;;
5428;SDS011;2737;52.386;9.980;2023-12-20T07:06:12;18.13;;;3.53;;
5428;SDS011;2737;52.386;9.980;2023-12-20T07:08:41;9.13;;;2.43;;
5428;SDS011;2737;52.386;9.980;2023-12-20T07:11:08;23.80;;;4.17;;
5428;SDS011;2737;52.386;9.980;2023-12-20T07:13:35;18.20;;;3.93;;
5428;SDS011;2737;52.386;9.980;2023-12-20T07:16:04;26.13;;;6.47;;
5428;SDS011;2737;52.386;9.980;2023-12-20T07:18:31;23.47;;;5.10;;
5428;SDS011;2737;52.386;9.980;2023-12-20T07:20:58;22.10;;;6.03;;
5428;SDS011;2737;52.386;9.980;2023-12-20T07:23:25;20.33;;;5.27;;
5428;SDS011;2737;52.386;9.980;2023-12-20T07:25:52;22.17;;;6.10;;
5428;SDS011;2737;52.386;9.980;2023-12-20T07:28:19;22.03;;;3.73;;
5428;SDS011;2737;52.386;9.980;2023-12-20T07:30:46;21.73;;;6.20;;
5428;SDS011;2737;52.386;9.980;2023-12-20T07:33:14;11.30;;;2.90;;
5428;SDS011;2737;52.386;9.980;2023-12-20T07:35:41;15.77;;;2.97;;
5428;SDS011;2737;52.386;9.980;2023-12-20T07:38:10;25.07;;;4.50;;
5428;SDS011;2737;52.386;9.980;2023-12-20T07:40:37;11.97;;;2.97;;
5428;SDS011;2737;52.386;9.980;2023-12-20T07:43:04;13.70;;;3.90;;
5428;SDS011;2737;52.386;9.980;2023-12-20T07:45:31;18.13;;;4.87;;
5428;SDS011;2737;52.386;9.980;2023-12-20T07:47:58;14.73;;;3.50;;
5428;SDS011;2737;52.386;9.980;2023-12-20T07:50:27;11.20;;;3.33;;
5428;SDS011;2737;52.386;9.980;2023-12-20T07:52:54;16.30;;;3.60;;
5428;SDS011;2737;52.386;9.980;2023-12-20T07:55:21;18.40;;;2.90;;
5428;SDS011;2737;52.386;9.980;2023-12-20T07:57:48;20.00;;;3.20;;
5428;SDS011;2737;52.386;9.980;2023-12-20T08:00:15;7.80;;;2.67;;
5428;SDS011;2737;52.386;9.980;2023-12-20T08:02:43;10.63;;;2.60;;
5428;SDS011;2737;52.386;9.980;2023-12-20T08:05:10;13.77;;;2.80;;
5428;SDS011;2737;52.386;9.980;2023-12-20T08:07:38;12.07;;;2.73;;
5428;SDS011;2737;52.386;9.980;2023-12-20T08:10:05;20.17;;;3.13;;
5428;SDS011;2737;52.386;9.980;2023-12-20T08:12:33;11.50;;;2.90;;
5428;SDS011;2737;52.386;9.980;2023-12-20T08:15:01;11.43;;;3.00;;
5428;SDS011;2737;52.386;9.980;2023-12-20T08:17:29;13.50;;;2.70;;
5428;SDS011;2737;52.386;9.980;2023-12-20T08:19:56;14.57;;;2.87;;
5428;SDS011;2737;52.386;9.980;2023-12-20T08:22:23;6.73;;;2.40;;
5428;SDS011;2737;52.386;9.980;2023-12-20T08:24:51;20.33;;;3.63;;
5428;SDS011;2737;52.386;9.980;2023-12-20T08:27:18;18.63;;;3.77;;
5428;SDS011;2737;52.386;9.980;2023-12-20T08:29:45;16.53;;;3.70;;
5428;SDS011;2737;52.386;9.980;2023-12-20T08:32:14;19.23;;;4.77;;
5428;SDS011;2737;52.386;9.980;2023-12-20T08:34:41;13.33;;;4.30;;
5428;SDS011;2737;52.386;9.980;2023-12-20T08:37:08;17.17;;;4.17;;
5428;SDS011;2737;52.386;9.980;2023-12-20T08:39:35;19.00;;;5.00;;
5428;SDS011;2737;52.386;9.980;2023-12-20T08:42:04;23.40;;;4.70;;
5428;SDS011;2737;52.386;9.980;2023-12-20T08:44:31;21.13;;;4.00;;
5428;SDS011;2737;52.386;9.980;2023-12-20T08:46:58;11.00;;;3.27;;
5428;SDS011;2737;52.386;9.980;2023-12-20T08:49:25;13.07;;;3.17;;
5428;SDS011;2737;52.386;9.980;2023-12-20T08:51:53;16.60;;;3.60;;
5428;SDS011;2737;52.386;9.980;2023-12-20T08:54:20;22.53;;;5.37;;
5428;SDS011;2737;52.386;9.980;2023-12-20T08:56:47;13.67;;;3.63;;
5428;SDS011;2737;52.386;9.980;2023-12-20T08:59:15;16.00;;;4.80;;
5428;SDS011;2737;52.386;9.980;2023-12-20T09:01:43;12.57;;;3.80;;
5428;SDS011;2737;52.386;9.980;2023-12-20T09:04:11;12.63;;;4.53;;
5428;SDS011;2737;52.386;9.980;2023-12-20T09:06:38;7.17;;;2.93;;
5428;SDS011;2737;52.386;9.980;2023-12-20T09:09:05;12.50;;;3.33;;
5428;SDS011;2737;52.386;9.980;2023-12-20T09:11:35;8.80;;;2.73;;
5428;SDS011;2737;52.386;9.980;2023-12-20T09:14:02;11.53;;;3.10;;
5428;SDS011;2737;52.386;9.980;2023-12-20T09:16:30;11.20;;;2.70;;
5428;SDS011;2737;52.386;9.980;2023-12-20T09:18:57;21.60;;;3.10;;
5428;SDS011;2737;52.386;9.980;2023-12-20T09:21:24;10.50;;;2.47;;
5428;SDS011;2737;52.386;9.980;2023-12-20T09:23:51;9.73;;;2.80;;
5428;SDS011;2737;52.386;9.980;2023-12-20T09:26:18;16.43;;;3.13;;
5428;SDS011;2737;52.386;9.980;2023-12-20T09:28:46;14.10;;;2.73;;
5428;SDS011;2737;52.386;9.980;2023-12-20T09:31:13;9.90;;;2.53;;
5428;SDS011;2737;52.386;9.980;2023-12-20T09:33:41;6.80;;;2.47;;
5428;SDS011;2737;52.386;9.980;2023-12-20T09:36:08;8.77;;;2.47;;
5428;SDS011;2737;52.386;9.980;2023-12-20T09:38:35;15.87;;;3.30;;
5428;SDS011;2737;52.386;9.980;2023-12-20T09:41:02;13.10;;;2.37;;
5428;SDS011;2737;52.386;9.980;2023-12-20T09:43:30;14.13;;;2.57;;
5428;SDS011;2737;52.386;9.980;2023-12-20T09:45:58;14.70;;;2.97;;
5428;SDS011;2737;52.386;9.980;2023-12-20T09:48:29;10.37;;;2.30;;
5428;SDS011;2737;52.386;9.980;2023-12-20T09:50:58;15.37;;;2.73;;
5428;SDS011;2737;52.386;9.980;2023-12-20T09:53:26;10.00;;;3.00;;
5428;SDS011;2737;52.386;9.980;2023-12-20T09:55:55;13.90;;;3.13;;
5428;SDS011;2737;52.386;9.980;2023-12-20T09:58:25;15.73;;;2.80;;
5428;SDS011;2737;52.386;9.980;2023-12-20T10:00:52;14.33;;;2.60;;
5428;SDS011;2737;52.386;9.980;2023-12-20T10:03:22;10.70;;;2.63;;
5428;SDS011;2737;52.386;9.980;2023-12-20T10:05:52;8.80;;;2.53;;
5428;SDS011;2737;52.386;9.980;2023-12-20T10:08:24;18.33;;;3.20;;
5428;SDS011;2737;52.386;9.980;2023-12-20T10:10:51;12.10;;;2.17;;
5428;SDS011;2737;52.386;9.980;2023-12-20T10:13:18;10.70;;;2.30;;
5428;SDS011;2737;52.386;9.980;2023-12-20T10:15:45;14.10;;;2.40;;
5428;SDS011;2737;52.386;9.980;2023-12-20T10:18:12;22.17;;;2.73;;
5428;SDS011;2737;52.386;9.980;2023-12-20T10:20:40;11.17;;;2.20;;
5428;SDS011;2737;52.386;9.980;2023-12-20T10:23:08;12.33;;;2.37;;
5428;SDS011;2737;52.386;9.980;2023-12-20T10:25:36;8.57;;;2.83;;
5428;SDS011;2737;52.386;9.980;2023-12-20T10:28:10;13.30;;;2.53;;
5428;SDS011;2737;52.386;9.980;2023-12-20T10:30:38;12.23;;;2.37;;
5428;SDS011;2737;52.386;9.980;2023-12-20T10:33:06;20.67;;;3.37;;
5428;SDS011;2737;52.386;9.980;2023-12-20T10:35:34;12.20;;;3.13;;
5428;SDS011;2737;52.386;9.980;2023-12-20T10:38:02;15.30;;;3.50;;
5428;SDS011;2737;52.386;9.980;2023-12-20T10:40:31;20.53;;;3.90;;
5428;SDS011;2737;52.386;9.980;2023-12-20T10:43:03;6.83;;;3.00;;
5428;SDS011;2737;52.386;9.980;2023-12-20T10:45:30;9.03;;;2.97;;
5428;SDS011;2737;52.386;9.980;2023-12-20T10:47:57;15.00;;;3.50;;
5428;SDS011;2737;52.386;9.980;2023-12-20T10:50:26;12.00;;;3.00;;
5428;SDS011;2737;52.386;9.980;2023-12-20T10:52:54;8.87;;;3.53;;
5428;SDS011;2737;52.386;9.980;2023-12-20T10:55:22;13.70;;;3.10;;
5428;SDS011;2737;52.386;9.980;2023-12-20T10:57:49;13.53;;;3.03;;
5428;SDS011;2737;52.386;9.980;2023-12-20T11:00:19;10.33;;;2.70;;
5428;SDS011;2737;52.386;9.980;2023-12-20T11:02:49;5.67;;;2.30;;
5428;SDS011;2737;52.386;9.980;2023-12-20T11:05:21;10.40;;;3.40;;
5428;SDS011;2737;52.386;9.980;2023-12-20T11:07:55;12.00;;;2.50;;
5428;SDS011;2737;52.386;9.980;2023-12-20T11:10:29;8.20;;;2.20;;
5428;SDS011;2737;52.386;9.980;2023-12-20T11:12:59;11.50;;;3.30;;
5428;SDS011;2737;52.386;9.980;2023-12-20T11:15:36;12.67;;;2.57;;
5428;SDS011;2737;52.386;9.980;2023-12-20T11:18:03;14.83;;;2.90;;
5428;SDS011;2737;52.386;9.980;2023-12-20T11:20:35;8.73;;;2.60;;
5428;SDS011;2737;52.386;9.980;2023-12-20T11:23:04;9.37;;;2.47;;
5428;SDS011;2737;52.386;9.980;2023-12-20T11:25:35;6.23;;;2.10;;
5428;SDS011;2737;52.386;9.980;2023-12-20T11:28:20;6.27;;;2.20;;
5428;SDS011;2737;52.386;9.980;2023-12-20T11:30:49;7.17;;;2.60;;
5428;SDS011;2737;52.386;9.980;2023-12-20T11:33:17;8.60;;;3.23;;
5428;SDS011;2737;52.386;9.980;2023-12-20T11:35:48;5.90;;;1.90;;
5428;SDS011;2737;52.386;9.980;2023-12-20T11:38:15;12.30;;;2.70;;
5428;SDS011;2737;52.386;9.980;2023-12-20T11:40:43;6.63;;;2.00;;
5428;SDS011;2737;52.386;9.980;2023-12-20T11:43:10;19.47;;;2.53;;
5428;SDS011;2737;52.386;9.980;2023-12-20T11:45:37;14.60;;;3.10;;
5428;SDS011;2737;52.386;9.980;2023-12-20T11:48:17;11.13;;;3.00;;
5428;SDS011;2737;52.386;9.980;2023-12-20T11:50:45;19.30;;;3.17;;
5428;SDS011;2737;52.386;9.980;2023-12-20T11:53:13;13.13;;;2.87;;
5428;SDS011;2737;52.386;9.980;2023-12-20T11:55:40;10.77;;;2.67;;
5428;SDS011;2737;52.386;9.980;2023-12-20T11:58:07;7.90;;;1.90;;
5428;SDS011;2737;52.386;9.980;2023-12-20T12:00:34;4.53;;;1.80;;
5428;SDS011;2737;52.386;9.980;2023-12-20T12:03:01;19.73;;;3.03;;
5428;SDS011;2737;52.386;9.980;2023-12-20T12:05:31;9.80;;;1.77;;
5428;SDS011;2737;52.386;9.980;2023-12-20T12:07:58;5.53;;;1.47;;
5428;SDS011;2737;52.386;9.980;2023-12-20T12:10:25;7.60;;;1.63;;
5428;SDS011;2737;52.386;9.980;2023-12-20T12:12:52;5.77;;;1.30;;
5428;SDS011;2737;52.386;9.980;2023-12-20T12:15:20;3.60;;;1.20;;
5428;SDS011;2737;52.386;9.980;2023-12-20T12:17:52;7.93;;;1.53;;
5428;SDS011;2737;52.386;9.980;2023-12-20T12:20:20;5.33;;;1.70;;
5428;SDS011;2737;52.386;9.980;2023-12-20T12:22:57;13.27;;;2.07;;
5428;SDS011;2737;52.386;9.980;2023-12-20T12:25:25;4.93;;;1.83;;
5428;SDS011;2737;52.386;9.980;2023-12-20T12:27:53;4.70;;;1.40;;
5428;SDS011;2737;52.386;9.980;2023-12-20T12:30:20;2.17;;;1.00;;
5428;SDS011;2737;52.386;9.980;2023-12-20T12:32:47;3.90;;;1.43;;
5428;SDS011;2737;52.386;9.980;2023-12-20T12:35:14;3.40;;;0.90;;
5428;SDS011;2737;52.386;9.980;2023-12-20T12:37:41;4.27;;;1.03;;
5428;SDS011;2737;52.386;9.980;2023-12-20T12:40:11;3.33;;;0.93;;
5428;SDS011;2737;52.386;9.980;2023-12-20T12:42:39;1.77;;;1.03;;
5428;SDS011;2737;52.386;9.980;2023-12-20T12:45:08;6.63;;;0.73;;
5428;SDS011;2737;52.386;9.980;2023-12-20T12:47:36;3.23;;;0.90;;
5428;SDS011;2737;52.386;9.980;2023-12-20T12:50:04;4.60;;;1.00;;
5428;SDS011;2737;52.386;9.980;2023-12-20T12:52:31;3.60;;;1.20;;
5428;SDS011;2737;52.386;9.980;2023-12-20T12:55:00;0.87;;;0.70;;
5428;SDS011;2737;52.386;9.980;2023-12-20T12:57:29;3.70;;;1.37;;
5428;SDS011;2737;52.386;9.980;2023-12-20T12:59:56;3.30;;;1.23;;
5428;SDS011;2737;52.386;9.980;2023-12-20T13:02:23;4.57;;;1.33;;
5428;SDS011;2737;52.386;9.980;2023-12-20T13:04:50;2.83;;;1.50;;
5428;SDS011;2737;52.386;9.980;2023-12-20T13:07:17;4.57;;;1.30;;
5428;SDS011;2737;52.386;9.980;2023-12-20T13:09:44;6.00;;;1.83;;
5428;SDS011;2737;52.386;9.980;2023-12-20T13:12:11;3.97;;;1.30;;
5428;SDS011;2737;52.386;9.980;2023-12-20T13:14:40;4.17;;;1.40;;
5428;SDS011;2737;52.386;9.980;2023-12-20T13:17:07;9.20;;;1.70;;
5428;SDS011;2737;52.386;9.980;2023-12-20T13:19:34;8.10;;;1.20;;
5428;SDS011;2737;52.386;9.980;2023-12-20T13:22:01;2.70;;;1.10;;
5428;SDS011;2737;52.386;9.980;2023-12-20T13:24:28;7.13;;;1.40;;
5428;SDS011;2737;52.386;9.980;2023-12-20T13:26:55;10.23;;;1.40;;
5428;SDS011;2737;52.386;9.980;2023-12-20T13:29:23;4.27;;;0.97;;
5428;SDS011;2737;52.386;9.980;2023-12-20T13:31:53;9.43;;;1.10;;
5428;SDS011;2737;52.386;9.980;2023-12-20T13:34:21;14.73;;;2.80;;
5428;SDS011;2737;52.386;9.980;2023-12-20T13:36:48;4.50;;;1.10;;
5428;SDS011;2737;52.386;9.980;2023-12-20T13:39:16;7.43;;;1.50;;
5428;SDS011;2737;52.386;9.980;2023-12-20T13:41:43;4.80;;;1.63;;
5428;SDS011;2737;52.386;9.980;2023-12-20T13:44:10;11.37;;;1.17;;
5428;SDS011;2737;52.386;9.980;2023-12-20T13:46:37;8.77;;;1.10;;
5428;SDS011;2737;52.386;9.980;2023-12-20T13:49:05;4.03;;;1.27;;
5428;SDS011;2737;52.386;9.980;2023-12-20T13:51:32;9.87;;;1.80;;
5428;SDS011;2737;52.386;9.980;2023-12-20T13:53:59;4.50;;;1.00;;
5428;SDS011;2737;52.386;9.980;2023-12-20T13:56:26;5.20;;;1.23;;
5428;SDS011;2737;52.386;9.980;2023-12-20T13:58:53;1.43;;;0.90;;
5428;SDS011;2737;52.386;9.980;2023-12-20T14:01:20;6.63;;;2.13;;
5428;SDS011;2737;52.386;9.980;2023-12-20T14:03:47;8.00;;;2.90;;
5428;SDS011;2737;52.386;9.980;2023-12-20T14:06:16;2.67;;;1.20;;
5428;SDS011;2737;52.386;9.980;2023-12-20T14:08:43;2.50;;;1.30;;
5428;SDS011;2737;52.386;9.980;2023-12-20T14:11:10;3.07;;;1.00;;
5428;SDS011;2737;52.386;9.980;2023-12-20T14:13:37;6.60;;;1.00;;
5428;SDS011;2737;52.386;9.980;2023-12-20T14:16:04;6.20;;;1.30;;
5428;SDS011;2737;52.386;9.980;2023-12-20T14:18:31;7.40;;;1.83;;
5428;SDS011;2737;52.386;9.980;2023-12-20T14:20:58;2.30;;;0.80;;
5428;SDS011;2737;52.386;9.980;2023-12-20T14:23:27;4.67;;;1.50;;
5428;SDS011;2737;52.386;9.980;2023-12-20T14:25:54;3.70;;;1.70;;
5428;SDS011;2737;52.386;9.980;2023-12-20T14:28:21;3.47;;;1.40;;
5428;SDS011;2737;52.386;9.980;2023-12-20T14:30:48;10.83;;;4.00;;
5428;SDS011;2737;52.386;9.980;2023-12-20T14:33:15;5.93;;;1.23;;
5428;SDS011;2737;52.386;9.980;2023-12-20T14:35:42;5.97;;;2.43;;
5428;SDS011;2737;52.386;9.980;2023-12-20T14:38:09;4.77;;;1.83;;
5428;SDS011;2737;52.386;9.980;2023-12-20T14:40:40;6.60;;;1.23;;
5428;SDS011;2737;52.386;9.980;2023-12-20T14:43:07;5.83;;;1.50;;
5428;SDS011;2737;52.386;9.980;2023-12-20T14:45:34;3.57;;;1.27;;
5428;SDS011;2737;52.386;9.980;2023-12-20T14:48:04;4.03;;;1.40;;
5428;SDS011;2737;52.386;9.980;2023-12-20T14:50:32;13.93;;;2.10;;
5428;SDS011;2737;52.386;9.980;2023-12-20T14:52:59;7.83;;;2.10;;
5428;SDS011;2737;52.386;9.980;2023-12-20T14:55:26;11.00;;;3.40;;
5428;SDS011;2737;52.386;9.980;2023-12-20T14:57:56;4.33;;;1.47;;
5428;SDS011;2737;52.386;9.980;2023-12-20T15:00:23;10.37;;;3.40;;
5428;SDS011;2737;52.386;9.980;2023-12-20T15:02:50;6.27;;;2.60;;
5428;SDS011;2737;52.386;9.980;2023-12-20T15:05:17;11.70;;;2.30;;
5428;SDS011;2737;52.386;9.980;2023-12-20T15:07:44;10.40;;;2.57;;